Time,TemperatureF,DewpointF,PressureIn,WindDirection,WindDirectionDegrees,WindSpeedMPH,WindSpeedGustMPH,Humidity,HourlyPrecipIn,Conditions,Clouds,dailyrainin,SoftwareType,DateUTC
2013-10-21 00:01:00,39.9,36.9,30.06,SW,225,0.0,0.0,89,0.00,,,0.00,VISReader,2013-10-21 04:01:00,
2013-10-21 00:02:00,39.9,36.9,30.06,SW,225,0.0,0.0,89,0.00,,,0.00,VISReader,2013-10-21 04:02:00,
2013-10-21 00:03:00,39.9,36.9,30.06,SW,225,0.0,0.0,89,0.00,,,0.00,VISReader,2013-10-21 04:03:00,
2013-10-21 00:08:00,40.3,37.6,30.06,SW,225,0.0,0.0,90,0.00,,,0.00,VISReader,2013-10-21 04:08:00,
2013-10-21 00:13:00,39.9,37.2,30.06,SW,225,0.0,0.0,90,0.00,,,0.00,VISReader,2013-10-21 04:13:00,
2013-10-21 00:19:00,39.6,36.6,30.06,SW,225,0.0,0.0,89,0.00,,,0.00,VISReader,2013-10-21 04:19:00,
2013-10-21 00:24:00,39.4,36.4,30.07,SW,225,0.0,0.0,89,0.00,,,0.00,VISReader,2013-10-21 04:24:00,
2013-10-21 00:29:00,39.2,36.2,30.07,SW,225,0.0,0.0,89,0.00,,,0.00,VISReader,2013-10-21 04:29:00,
2013-10-21 00:34:00,39.0,36.0,30.07,SW,225,0.0,0.0,89,0.00,,,0.00,VISReader,2013-10-21 04:34:00,
2013-10-21 00:40:00,39.0,36.3,30.07,SW,225,0.0,0.0,90,0.00,,,0.00,VISReader,2013-10-21 04:40:00,
2013-10-21 00:45:00,38.8,36.1,30.07,SW,225,0.0,0.0,90,0.00,,,0.00,VISReader,2013-10-21 04:45:00,
2013-10-21 00:50:00,38.8,36.1,30.06,SW,225,0.0,0.0,90,0.00,,,0.00,VISReader,2013-10-21 04:50:00,
2013-10-21 00:55:00,38.8,36.4,30.06,SW,225,0.0,0.0,91,0.00,,,0.00,VISReader,2013-10-21 04:55:00,
2013-10-21 01:00:00,38.7,36.3,30.07,SW,225,0.0,0.0,91,0.00,,,0.00,VISReader,2013-10-21 05:00:00,
2013-10-21 01:05:00,38.7,36.3,30.07,SW,225,0.0,0.0,91,0.00,,,0.00,VISReader,2013-10-21 05:05:00,
2013-10-21 01:11:00,38.5,36.1,30.07,SW,225,0.0,0.0,91,0.00,,,0.00,VISReader,2013-10-21 05:11:00,
2013-10-21 01:16:00,38.5,36.1,30.07,SW,225,0.0,0.0,91,0.00,,,0.00,VISReader,2013-10-21 05:16:00,
2013-10-21 01:21:00,38.7,36.6,30.07,SW,225,0.0,0.0,92,0.00,,,0.00,VISReader,2013-10-21 05:21:00,
2013-10-21 01:27:00,38.3,36.2,30.07,SW,225,0.0,0.0,92,0.00,,,0.00,VISReader,2013-10-21 05:27:00,
2013-10-21 01:32:00,38.1,36.0,30.07,SW,225,0.0,0.0,92,0.00,,,0.00,VISReader,2013-10-21 05:32:00,
2013-10-21 01:37:00,38.3,36.2,30.07,SW,225,0.0,0.0,92,0.00,,,0.00,VISReader,2013-10-21 05:37:00,
2013-10-21 01:42:00,38.1,36.0,30.07,SW,225,0.0,0.0,92,0.00,,,0.00,VISReader,2013-10-21 05:42:00,
2013-10-21 01:47:00,38.3,36.2,30.07,SW,225,0.0,0.0,92,0.00,,,0.00,VISReader,2013-10-21 05:47:00,
2013-10-21 01:52:00,37.8,35.7,30.08,SW,225,0.0,0.0,92,0.00,,,0.00,VISReader,2013-10-21 05:52:00,
2013-10-21 01:58:00,37.8,35.7,30.08,SW,225,0.0,0.0,92,0.00,,,0.00,VISReader,2013-10-21 05:58:00,
2013-10-21 02:03:00,37.6,35.2,30.08,SW,225,0.0,0.0,91,0.00,,,0.00,VISReader,2013-10-21 06:03:00,
2013-10-21 02:08:00,37.2,34.8,30.08,SW,225,0.0,0.0,91,0.00,,,0.00,VISReader,2013-10-21 06:08:00,
2013-10-21 02:13:00,37.2,34.8,30.08,SW,225,0.0,0.0,91,0.00,,,0.00,VISReader,2013-10-21 06:13:00,
2013-10-21 02:18:00,37.0,34.6,30.08,SW,225,0.0,0.0,91,0.00,,,0.00,VISReader,2013-10-21 06:18:00,
2013-10-21 02:24:00,37.0,34.6,30.08,SW,225,0.0,0.0,91,0.00,,,0.00,VISReader,2013-10-21 06:24:00,
2013-10-21 02:29:00,37.4,35.3,30.08,SW,225,0.0,0.0,92,0.00,,,0.00,VISReader,2013-10-21 06:29:00,
2013-10-21 02:34:00,37.4,35.3,30.08,SW,225,0.0,0.0,92,0.00,,,0.00,VISReader,2013-10-21 06:34:00,
2013-10-21 02:39:00,37.4,35.3,30.08,SW,225,0.0,0.0,92,0.00,,,0.00,VISReader,2013-10-21 06:39:00,
2013-10-21 02:44:00,37.4,35.3,30.08,SW,225,0.0,0.0,92,0.00,,,0.00,VISReader,2013-10-21 06:44:00,
2013-10-21 02:50:00,37.4,35.3,30.09,SW,225,0.0,0.0,92,0.00,,,0.00,VISReader,2013-10-21 06:50:00,
2013-10-21 02:55:00,37.8,36.0,30.09,SW,225,0.0,0.0,93,0.00,,,0.00,VISReader,2013-10-21 06:55:00,
2013-10-21 03:00:00,37.6,35.8,30.08,SW,225,0.0,0.0,93,0.00,,,0.00,VISReader,2013-10-21 07:00:00,
2013-10-21 03:05:00,37.6,35.8,30.08,SW,225,0.0,0.0,93,0.00,,,0.00,VISReader,2013-10-21 07:05:00,
2013-10-21 03:10:00,37.4,35.6,30.08,SW,225,0.0,0.0,93,0.00,,,0.00,VISReader,2013-10-21 07:10:00,
2013-10-21 03:16:00,37.4,35.6,30.08,SW,225,0.0,0.0,93,0.00,,,0.00,VISReader,2013-10-21 07:16:00,
2013-10-21 03:21:00,37.6,35.8,30.08,SW,225,0.0,0.0,93,0.00,,,0.00,VISReader,2013-10-21 07:21:00,
2013-10-21 03:26:00,37.0,35.2,30.09,SW,225,0.0,0.0,93,0.00,,,0.00,VISReader,2013-10-21 07:26:00,
2013-10-21 03:31:00,36.7,34.9,30.09,SW,225,0.0,0.0,93,0.00,,,0.00,VISReader,2013-10-21 07:31:00,
2013-10-21 03:37:00,37.2,35.4,30.09,SW,225,0.0,0.0,93,0.00,,,0.00,VISReader,2013-10-21 07:37:00,
2013-10-21 03:42:00,37.4,35.8,30.09,SW,225,0.0,0.0,94,0.00,,,0.00,VISReader,2013-10-21 07:42:00,
2013-10-21 03:48:00,36.7,35.1,30.09,SW,225,0.0,0.0,94,0.00,,,0.00,VISReader,2013-10-21 07:48:00,
2013-10-21 03:53:00,36.7,35.1,30.09,SW,225,0.0,0.0,94,0.00,,,0.00,VISReader,2013-10-21 07:53:00,
2013-10-21 03:58:00,36.7,34.9,30.09,SW,225,0.0,0.0,93,0.00,,,0.00,VISReader,2013-10-21 07:58:00,
2013-10-21 04:03:00,37.2,35.6,30.09,SW,225,0.0,0.0,94,0.00,,,0.00,VISReader,2013-10-21 08:03:00,
2013-10-21 04:08:00,36.5,34.9,30.09,SW,225,0.0,0.0,94,0.00,,,0.00,VISReader,2013-10-21 08:08:00,
2013-10-21 04:14:00,36.3,34.5,30.09,SW,225,0.0,0.0,93,0.00,,,0.00,VISReader,2013-10-21 08:14:00,
2013-10-21 04:19:00,36.3,34.5,30.09,SW,225,0.0,0.0,93,0.00,,,0.00,VISReader,2013-10-21 08:19:00,
2013-10-21 04:24:00,36.1,34.3,30.09,SW,225,0.0,0.0,93,0.00,,,0.00,VISReader,2013-10-21 08:24:00,
2013-10-21 04:29:00,36.5,34.9,30.09,SW,225,0.0,0.0,94,0.00,,,0.00,VISReader,2013-10-21 08:29:00,
2013-10-21 04:34:00,36.3,34.7,30.09,SW,225,0.0,0.0,94,0.00,,,0.00,VISReader,2013-10-21 08:34:00,
2013-10-21 04:39:00,35.8,34.2,30.09,SW,225,0.0,0.0,94,0.00,,,0.00,VISReader,2013-10-21 08:39:00,
2013-10-21 04:45:00,35.8,34.0,30.09,SW,225,0.0,0.0,93,0.00,,,0.00,VISReader,2013-10-21 08:45:00,
2013-10-21 04:50:00,35.4,33.6,30.10,SW,225,0.0,0.0,93,0.00,,,0.00,VISReader,2013-10-21 08:50:00,
2013-10-21 04:55:00,36.3,34.7,30.10,SW,225,0.0,0.0,94,0.00,,,0.00,VISReader,2013-10-21 08:55:00,
2013-10-21 05:00:00,36.3,34.7,30.10,SW,225,0.0,0.0,94,0.00,,,0.00,VISReader,2013-10-21 09:00:00,
2013-10-21 05:05:00,35.8,34.2,30.10,SW,225,0.0,0.0,94,0.00,,,0.00,VISReader,2013-10-21 09:05:00,
2013-10-21 05:11:00,35.6,34.0,30.10,SW,225,0.0,0.0,94,0.00,,,0.00,VISReader,2013-10-21 09:11:00,
2013-10-21 05:16:00,36.1,34.5,30.10,SW,225,0.0,0.0,94,0.00,,,0.00,VISReader,2013-10-21 09:16:00,
2013-10-21 05:21:00,35.8,34.2,30.10,SW,225,0.0,0.0,94,0.00,,,0.00,VISReader,2013-10-21 09:21:00,
2013-10-21 05:26:00,35.6,34.0,30.11,SW,225,0.0,0.0,94,0.00,,,0.00,VISReader,2013-10-21 09:26:00,
2013-10-21 05:31:00,36.0,34.4,30.11,SW,225,0.0,0.0,94,0.00,,,0.00,VISReader,2013-10-21 09:31:00,
2013-10-21 05:37:00,35.4,33.8,30.10,SW,225,0.0,0.0,94,0.00,,,0.00,VISReader,2013-10-21 09:37:00,
2013-10-21 05:42:00,35.1,33.6,30.10,SW,225,0.0,0.0,94,0.00,,,0.00,VISReader,2013-10-21 09:42:00,
2013-10-21 05:47:00,35.4,33.8,30.10,SW,225,0.0,0.0,94,0.00,,,0.00,VISReader,2013-10-21 09:47:00,
2013-10-21 05:52:00,35.1,33.6,30.10,SW,225,0.0,0.0,94,0.00,,,0.00,VISReader,2013-10-21 09:52:00,
2013-10-21 05:57:00,35.2,33.6,30.10,SW,225,0.0,0.0,94,0.00,,,0.00,VISReader,2013-10-21 09:57:00,
2013-10-21 06:02:00,35.8,34.2,30.11,SW,225,0.0,0.0,94,0.00,,,0.00,VISReader,2013-10-21 10:02:00,
2013-10-21 06:08:00,35.4,33.8,30.11,SW,225,0.0,0.0,94,0.00,,,0.00,VISReader,2013-10-21 10:08:00,
2013-10-21 06:13:00,35.2,33.6,30.11,SW,225,0.0,0.0,94,0.00,,,0.00,VISReader,2013-10-21 10:13:00,
2013-10-21 06:18:00,35.2,33.6,30.11,SW,225,0.0,0.0,94,0.00,,,0.00,VISReader,2013-10-21 10:18:00,
2013-10-21 06:23:00,35.2,33.6,30.11,SW,225,0.0,0.0,94,0.00,,,0.00,VISReader,2013-10-21 10:23:00,
2013-10-21 06:29:00,35.1,33.6,30.12,SW,225,0.0,0.0,94,0.00,,,0.00,VISReader,2013-10-21 10:29:00,
2013-10-21 06:34:00,35.6,34.0,30.12,SW,225,0.0,0.0,94,0.00,,,0.00,VISReader,2013-10-21 10:34:00,
2013-10-21 06:39:00,35.1,33.6,30.11,SW,225,0.0,0.0,94,0.00,,,0.00,VISReader,2013-10-21 10:39:00,
2013-10-21 06:44:00,35.1,33.6,30.11,SW,225,0.0,0.0,94,0.00,,,0.00,VISReader,2013-10-21 10:44:00,
2013-10-21 06:49:00,35.1,33.6,30.12,SW,225,0.0,0.0,94,0.00,,,0.00,VISReader,2013-10-21 10:49:00,
2013-10-21 06:55:00,36.0,34.4,30.12,SW,225,0.0,0.0,94,0.00,,,0.00,VISReader,2013-10-21 10:55:00,
2013-10-21 07:00:00,36.0,34.7,30.11,SW,225,0.0,0.0,95,0.00,,,0.00,VISReader,2013-10-21 11:00:00,
2013-10-21 07:05:00,36.1,34.8,30.11,SW,225,0.0,0.0,95,0.00,,,0.00,VISReader,2013-10-21 11:05:00,
2013-10-21 07:10:00,36.0,34.7,30.11,SW,225,0.0,0.0,95,0.00,,,0.00,VISReader,2013-10-21 11:10:00,
2013-10-21 07:15:00,35.6,34.3,30.12,SW,225,0.0,0.0,95,0.00,,,0.00,VISReader,2013-10-21 11:15:00,
2013-10-21 07:21:00,35.4,34.1,30.12,SW,225,0.0,0.0,95,0.00,,,0.00,VISReader,2013-10-21 11:21:00,
2013-10-21 07:26:00,34.9,33.6,30.11,SW,225,0.0,0.0,95,0.00,,,0.00,VISReader,2013-10-21 11:26:00,
2013-10-21 07:31:00,34.9,33.6,30.11,SW,225,0.0,0.0,95,0.00,,,0.00,VISReader,2013-10-21 11:31:00,
2013-10-21 07:36:00,35.1,33.8,30.12,SW,225,0.0,0.0,95,0.00,,,0.00,VISReader,2013-10-21 11:36:00,
2013-10-21 07:41:00,35.6,34.3,30.12,SW,225,0.0,0.0,95,0.00,,,0.00,VISReader,2013-10-21 11:41:00,
2013-10-21 07:46:00,35.8,34.5,30.12,SW,225,0.0,0.0,95,0.00,,,0.00,VISReader,2013-10-21 11:46:00,
2013-10-21 07:52:00,35.4,34.1,30.12,SW,225,0.0,0.0,95,0.00,,,0.00,VISReader,2013-10-21 11:52:00,
2013-10-21 07:57:00,35.2,33.9,30.12,SW,225,0.0,0.0,95,0.00,,,0.00,VISReader,2013-10-21 11:57:00,
2013-10-21 08:02:00,35.4,34.1,30.13,SW,225,0.0,0.0,95,0.00,,,0.00,VISReader,2013-10-21 12:02:00,
2013-10-21 08:07:00,36.0,34.7,30.13,SW,225,0.0,0.0,95,0.00,,,0.00,VISReader,2013-10-21 12:07:00,
2013-10-21 08:13:00,37.2,35.9,30.13,SW,225,0.0,0.0,95,0.00,,,0.00,VISReader,2013-10-21 12:13:00,
2013-10-21 08:18:00,36.9,35.6,30.13,SW,225,0.0,0.0,95,0.00,,,0.00,VISReader,2013-10-21 12:18:00,
2013-10-21 08:23:00,36.9,35.6,30.13,SW,225,0.0,0.0,95,0.00,,,0.00,VISReader,2013-10-21 12:23:00,
2013-10-21 08:28:00,37.6,36.3,30.13,SW,225,0.0,0.0,95,0.00,,,0.00,VISReader,2013-10-21 12:28:00,
2013-10-21 08:33:00,37.9,36.6,30.13,SW,225,0.0,0.0,95,0.00,,,0.00,VISReader,2013-10-21 12:33:00,
2013-10-21 08:38:00,38.5,37.2,30.14,SW,225,0.0,0.0,95,0.00,,,0.00,VISReader,2013-10-21 12:38:00,
2013-10-21 08:43:00,39.2,37.9,30.14,SW,225,0.0,0.0,95,0.00,,,0.00,VISReader,2013-10-21 12:43:00,
2013-10-21 08:49:00,39.7,38.4,30.14,SW,225,0.0,0.0,95,0.00,,,0.00,VISReader,2013-10-21 12:49:00,
2013-10-21 08:54:00,41.9,40.8,30.14,SW,225,0.0,0.0,96,0.00,,,0.00,VISReader,2013-10-21 12:54:00,
2013-10-21 08:59:00,43.0,41.9,30.14,SW,225,0.0,0.0,96,0.00,,,0.00,VISReader,2013-10-21 12:59:00,
2013-10-21 09:04:00,45.3,44.2,30.14,SW,225,0.0,0.0,96,0.00,,,0.00,VISReader,2013-10-21 13:04:00,
2013-10-21 09:09:00,45.7,44.6,30.14,SW,225,0.0,0.0,96,0.00,,,0.00,VISReader,2013-10-21 13:09:00,
2013-10-21 09:15:00,47.7,46.3,30.14,SW,225,0.0,0.0,95,0.00,,,0.00,VISReader,2013-10-21 13:15:00,
2013-10-21 09:20:00,48.0,43.7,30.14,SW,225,0.0,0.0,85,0.00,,,0.00,VISReader,2013-10-21 13:20:00,
2013-10-21 09:25:00,50.0,46.3,30.14,SW,225,0.0,0.0,87,0.00,,,0.00,VISReader,2013-10-21 13:25:00,
2013-10-21 09:30:00,51.4,44.1,30.14,SW,225,1.7,2.7,76,0.00,,,0.00,VISReader,2013-10-21 13:30:00,
2013-10-21 09:35:00,53.4,45.0,30.14,SW,225,0.0,3.5,73,0.00,,,0.00,VISReader,2013-10-21 13:35:00,
2013-10-21 09:40:00,50.5,42.5,30.13,SW,225,0.0,2.7,74,0.00,,,0.00,VISReader,2013-10-21 13:40:00,
2013-10-21 09:46:00,50.7,42.4,30.13,SW,225,1.1,2.7,73,0.00,,,0.00,VISReader,2013-10-21 13:46:00,
2013-10-21 09:51:00,51.4,42.7,30.13,West,270,0.0,3.5,72,0.00,,,0.00,VISReader,2013-10-21 13:51:00,
2013-10-21 09:56:00,52.3,43.2,30.13,WNW,292,1.7,3.5,71,0.00,,,0.00,VISReader,2013-10-21 13:56:00,
2013-10-21 10:01:00,54.0,42.5,30.13,WNW,292,0.0,3.5,65,0.00,,,0.00,VISReader,2013-10-21 14:01:00,
2013-10-21 10:06:00,54.0,42.5,30.13,WNW,292,0.0,2.7,65,0.00,,,0.00,VISReader,2013-10-21 14:06:00,
2013-10-21 10:12:00,54.5,43.0,30.13,WNW,292,1.1,3.5,65,0.00,,,0.00,VISReader,2013-10-21 14:12:00,
2013-10-21 10:17:00,55.6,43.2,30.13,West,270,2.2,4.3,63,0.00,,,0.00,VISReader,2013-10-21 14:17:00,
2013-10-21 10:22:00,56.3,43.0,30.13,South,180,3.7,6.0,61,0.00,,,0.00,VISReader,2013-10-21 14:22:00,
2013-10-21 10:27:00,56.8,43.1,30.12,WSW,247,2.2,6.0,60,0.00,,,0.00,VISReader,2013-10-21 14:27:00,
2013-10-21 10:33:00,57.4,43.2,30.12,SW,225,2.2,6.0,59,0.00,,,0.00,VISReader,2013-10-21 14:33:00,
2013-10-21 10:38:00,58.1,44.7,30.12,West,270,0.0,6.0,61,0.00,,,0.00,VISReader,2013-10-21 14:38:00,
2013-10-21 10:43:00,58.8,44.9,30.12,South,180,1.7,5.1,60,0.00,,,0.00,VISReader,2013-10-21 14:43:00,
2013-10-21 10:49:00,59.4,45.5,30.12,West,270,1.7,5.1,60,0.00,,,0.00,VISReader,2013-10-21 14:49:00,
2013-10-21 10:54:00,59.9,44.6,30.12,West,270,4.2,8.5,57,0.00,,,0.00,VISReader,2013-10-21 14:54:00,
2013-10-21 10:59:00,60.3,44.1,30.12,SSE,157,3.2,11.8,55,0.00,,,0.00,VISReader,2013-10-21 14:59:00,
2013-10-21 11:04:00,60.6,44.8,30.11,West,270,3.2,11.8,56,0.00,,,0.00,VISReader,2013-10-21 15:04:00,
2013-10-21 11:09:00,61.5,45.2,30.11,SW,225,2.2,7.6,55,0.00,,,0.00,VISReader,2013-10-21 15:09:00,
2013-10-21 11:15:00,61.2,43.9,30.11,SSW,202,2.7,10.1,53,0.00,,,0.00,VISReader,2013-10-21 15:15:00,
2013-10-21 11:20:00,61.9,44.6,30.11,South,180,2.2,10.9,53,0.00,,,0.00,VISReader,2013-10-21 15:20:00,
2013-10-21 11:25:00,62.2,44.4,30.11,WNW,292,3.7,10.9,52,0.00,,,0.00,VISReader,2013-10-21 15:25:00,
2013-10-21 11:30:00,62.1,43.2,30.11,West,270,2.7,9.3,50,0.00,,,0.00,VISReader,2013-10-21 15:30:00,
2013-10-21 11:36:00,63.0,44.6,30.11,SSW,202,3.7,9.3,51,0.00,,,0.00,VISReader,2013-10-21 15:36:00,
2013-10-21 11:41:00,62.8,44.4,30.11,WNW,292,5.8,12.6,51,0.00,,,0.00,VISReader,2013-10-21 15:41:00,
2013-10-21 11:46:00,62.8,43.4,30.11,SW,225,3.7,12.6,49,0.00,,,0.00,VISReader,2013-10-21 15:46:00,
2013-10-21 11:51:00,63.0,44.6,30.10,WNW,292,3.7,10.9,51,0.00,,,0.00,VISReader,2013-10-21 15:51:00,
2013-10-21 11:56:00,63.3,43.8,30.10,West,270,2.2,6.8,49,0.00,,,0.00,VISReader,2013-10-21 15:56:00,
2013-10-21 12:01:00,64.0,44.5,30.10,WNW,292,7.3,11.8,49,0.00,,,0.00,VISReader,2013-10-21 16:01:00,
2013-10-21 12:07:00,64.0,45.0,30.10,SW,225,2.7,11.8,50,0.00,,,0.00,VISReader,2013-10-21 16:07:00,
2013-10-21 12:12:00,64.4,45.9,30.10,WNW,292,1.7,10.1,51,0.00,,,0.00,VISReader,2013-10-21 16:12:00,
2013-10-21 12:17:00,64.2,44.6,30.10,South,180,5.8,10.1,49,0.00,,,0.00,VISReader,2013-10-21 16:17:00,
2013-10-21 12:22:00,64.0,43.4,30.10,SSE,157,7.3,14.3,47,0.00,,,0.00,VISReader,2013-10-21 16:22:00,
2013-10-21 12:28:00,64.0,43.4,30.10,SSE,157,7.3,14.3,47,0.00,,,0.00,VISReader,2013-10-21 16:28:00,
2013-10-21 12:33:00,64.4,42.6,30.10,SW,225,4.2,11.8,45,0.00,,,0.00,VISReader,2013-10-21 16:33:00,
2013-10-21 12:38:00,64.4,42.0,30.09,WSW,247,3.7,14.3,44,0.00,,,0.00,VISReader,2013-10-21 16:38:00,
2013-10-21 12:43:00,64.2,41.8,30.09,WNW,292,6.3,11.8,44,0.00,,,0.00,VISReader,2013-10-21 16:43:00,
2013-10-21 12:48:00,64.8,41.8,30.08,West,270,3.2,13.4,43,0.00,,,0.00,VISReader,2013-10-21 16:48:00,
2013-10-21 12:53:00,65.1,43.8,30.08,South,180,2.7,13.4,46,0.00,,,0.00,VISReader,2013-10-21 16:53:00,
2013-10-21 12:59:00,65.1,42.0,30.08,SW,225,2.2,10.9,43,0.00,,,0.00,VISReader,2013-10-21 16:59:00,
2013-10-21 13:04:00,64.9,43.0,30.08,ESE,112,3.7,10.1,45,0.00,,,0.00,VISReader,2013-10-21 17:04:00,
2013-10-21 13:09:00,64.8,43.0,30.08,NNW,337,3.2,15.1,45,0.00,,,0.00,VISReader,2013-10-21 17:09:00,
2013-10-21 13:14:00,64.6,42.2,30.07,SE,135,3.2,15.1,44,0.00,,,0.00,VISReader,2013-10-21 17:14:00,
2013-10-21 13:19:00,65.7,42.6,30.07,South,180,4.7,13.4,43,0.00,,,0.00,VISReader,2013-10-21 17:19:00,
2013-10-21 13:25:00,64.8,41.2,30.06,ESE,112,8.3,13.4,42,0.00,,,0.00,VISReader,2013-10-21 17:25:00,
2013-10-21 13:30:00,64.4,40.2,30.06,ESE,112,7.8,17.6,41,0.00,,,0.00,VISReader,2013-10-21 17:30:00,
2013-10-21 13:35:00,64.8,40.5,30.06,SSE,157,4.7,17.6,41,0.00,,,0.00,VISReader,2013-10-21 17:35:00,
2013-10-21 13:40:00,64.9,41.3,30.06,SW,225,2.7,14.3,42,0.00,,,0.00,VISReader,2013-10-21 17:40:00,
2013-10-21 13:46:00,65.7,42.0,30.06,South,180,4.2,14.3,42,0.00,,,0.00,VISReader,2013-10-21 17:46:00,
2013-10-21 13:51:00,65.5,41.2,30.05,SW,225,3.2,10.9,41,0.00,,,0.00,VISReader,2013-10-21 17:51:00,
2013-10-21 13:56:00,64.6,41.0,30.05,SSW,202,4.2,8.5,42,0.00,,,0.00,VISReader,2013-10-21 17:56:00,
2013-10-21 14:01:00,64.6,41.6,30.05,SSE,157,6.8,10.9,43,0.00,,,0.00,VISReader,2013-10-21 18:01:00,
2013-10-21 14:07:00,65.3,42.2,30.05,West,270,2.2,10.9,43,0.00,,,0.00,VISReader,2013-10-21 18:07:00,
2013-10-21 14:12:00,64.9,41.9,30.05,SSE,157,4.7,10.9,43,0.00,,,0.00,VISReader,2013-10-21 18:12:00,
2013-10-21 14:17:00,64.9,40.6,30.04,South,180,6.3,12.6,41,0.00,,,0.00,VISReader,2013-10-21 18:17:00,
2013-10-21 14:22:00,64.8,41.8,30.04,SSW,202,6.3,12.6,43,0.00,,,0.00,VISReader,2013-10-21 18:22:00,
2013-10-21 14:27:00,64.9,42.5,30.03,WSW,247,1.7,12.6,44,0.00,,,0.00,VISReader,2013-10-21 18:27:00,
2013-10-21 14:33:00,65.1,42.0,30.03,South,180,0.0,11.8,43,0.00,,,0.00,VISReader,2013-10-21 18:33:00,
2013-10-21 14:38:00,64.6,41.0,30.03,West,270,1.7,17.6,42,0.00,,,0.00,VISReader,2013-10-21 18:38:00,
2013-10-21 14:43:00,65.1,41.4,30.03,West,270,4.2,17.6,42,0.00,,,0.00,VISReader,2013-10-21 18:43:00,
2013-10-21 14:48:00,64.9,42.5,30.02,SW,225,3.2,15.9,44,0.00,,,0.00,VISReader,2013-10-21 18:48:00,
2013-10-21 14:54:00,64.8,41.2,30.02,South,180,4.7,15.9,42,0.00,,,0.00,VISReader,2013-10-21 18:54:00,
2013-10-21 14:59:00,64.9,41.9,30.02,South,180,3.2,11.8,43,0.00,,,0.00,VISReader,2013-10-21 18:59:00,
2013-10-21 15:04:00,65.3,42.2,30.02,WSW,247,2.7,10.1,43,0.00,,,0.00,VISReader,2013-10-21 19:04:00,
2013-10-21 15:09:00,65.1,41.4,30.02,SSE,157,9.9,15.9,42,0.00,,,0.00,VISReader,2013-10-21 19:09:00,
2013-10-21 15:14:00,65.1,41.4,30.01,WNW,292,2.2,15.9,42,0.00,,,0.00,VISReader,2013-10-21 19:14:00,
2013-10-21 15:20:00,65.1,42.0,30.01,WSW,247,4.2,10.9,43,0.00,,,0.00,VISReader,2013-10-21 19:20:00,
2013-10-21 15:25:00,65.3,42.8,30.01,WSW,247,5.3,10.9,44,0.00,,,0.00,VISReader,2013-10-21 19:25:00,
2013-10-21 15:30:00,65.3,43.4,30.01,NW,315,2.2,8.5,45,0.00,,,0.00,VISReader,2013-10-21 19:30:00,
2013-10-21 15:35:00,65.1,43.2,30.01,SW,225,2.2,10.9,45,0.00,,,0.00,VISReader,2013-10-21 19:35:00,
2013-10-21 15:40:00,65.1,43.2,30.01,WSW,247,4.7,10.9,45,0.00,,,0.00,VISReader,2013-10-21 19:40:00,
2013-10-21 15:45:00,64.2,43.0,30.01,South,180,2.7,15.9,46,0.00,,,0.00,VISReader,2013-10-21 19:45:00,
2013-10-21 15:51:00,64.2,43.0,30.01,WNW,292,2.2,15.9,46,0.00,,,0.00,VISReader,2013-10-21 19:51:00,
2013-10-21 15:56:00,64.4,42.6,30.01,South,180,3.2,11.8,45,0.00,,,0.00,VISReader,2013-10-21 19:56:00,
2013-10-21 16:01:00,64.8,43.5,30.00,South,180,4.7,10.9,46,0.00,,,0.00,VISReader,2013-10-21 20:01:00,
2013-10-21 16:06:00,64.0,43.4,30.00,West,270,4.7,11.8,47,0.00,,,0.00,VISReader,2013-10-21 20:06:00,
2013-10-21 16:12:00,64.8,43.5,30.00,West,270,2.2,11.8,46,0.00,,,0.00,VISReader,2013-10-21 20:12:00,
2013-10-21 16:17:00,66.4,43.8,30.00,West,270,2.7,10.1,44,0.00,,,0.00,VISReader,2013-10-21 20:17:00,
2013-10-21 16:22:00,64.8,43.0,30.00,SW,225,6.3,13.4,45,0.00,,,0.00,VISReader,2013-10-21 20:22:00,
2013-10-21 16:27:00,64.2,43.5,30.00,SW,225,2.2,13.4,47,0.00,,,0.00,VISReader,2013-10-21 20:27:00,
2013-10-21 16:33:00,64.0,43.4,30.00,West,270,4.2,10.9,47,0.00,,,0.00,VISReader,2013-10-21 20:33:00,
2013-10-21 16:38:00,63.5,42.9,29.99,SSE,157,3.2,10.9,47,0.00,,,0.00,VISReader,2013-10-21 20:38:00,
2013-10-21 16:43:00,63.5,43.5,29.99,West,270,3.7,10.9,48,0.00,,,0.00,VISReader,2013-10-21 20:43:00,
2013-10-21 16:48:00,63.1,43.1,29.99,SSE,157,1.7,10.9,48,0.00,,,0.00,VISReader,2013-10-21 20:48:00,
2013-10-21 16:54:00,63.0,43.0,29.99,West,270,3.7,10.9,48,0.00,,,0.00,VISReader,2013-10-21 20:54:00,
2013-10-21 16:59:00,62.8,42.8,29.99,ENE,67,2.2,10.1,48,0.00,,,0.00,VISReader,2013-10-21 20:59:00,
2013-10-21 17:04:00,62.8,43.4,29.99,SW,225,2.7,12.6,49,0.00,,,0.00,VISReader,2013-10-21 21:04:00,
2013-10-21 17:09:00,62.6,43.7,29.99,SSW,202,1.1,12.6,50,0.00,,,0.00,VISReader,2013-10-21 21:09:00,
2013-10-21 17:14:00,62.2,44.4,29.98,SSW,202,1.7,6.0,52,0.00,,,0.00,VISReader,2013-10-21 21:14:00,
2013-10-21 17:19:00,61.9,44.1,29.98,South,180,1.7,6.0,52,0.00,,,0.00,VISReader,2013-10-21 21:19:00,
2013-10-21 17:25:00,61.7,43.9,29.98,South,180,0.0,4.3,52,0.00,,,0.00,VISReader,2013-10-21 21:25:00,
2013-10-21 17:30:00,61.2,44.4,29.98,South,180,2.7,4.3,54,0.00,,,0.00,VISReader,2013-10-21 21:30:00,
2013-10-21 17:35:00,61.2,44.4,29.98,South,180,4.7,8.5,54,0.00,,,0.00,VISReader,2013-10-21 21:35:00,
2013-10-21 17:40:00,61.0,44.7,29.99,ENE,67,2.7,9.3,55,0.00,,,0.00,VISReader,2013-10-21 21:40:00,
2013-10-21 17:46:00,60.6,44.8,29.99,SE,135,6.3,12.6,56,0.00,,,0.00,VISReader,2013-10-21 21:46:00,
2013-10-21 17:51:00,60.3,45.0,29.99,SSE,157,5.8,14.3,57,0.00,,,0.00,VISReader,2013-10-21 21:51:00,
2013-10-21 17:56:00,59.9,45.1,29.99,ENE,67,3.2,14.3,58,0.00,,,0.00,VISReader,2013-10-21 21:56:00,
2013-10-21 18:01:00,59.5,45.2,29.99,SSE,157,1.7,8.5,59,0.00,,,0.00,VISReader,2013-10-21 22:01:00,
2013-10-21 18:06:00,59.2,45.3,29.99,SE,135,1.7,9.3,60,0.00,,,0.00,VISReader,2013-10-21 22:06:00,
2013-10-21 18:12:00,59.0,45.1,30.00,NNE,22,2.2,9.3,60,0.00,,,0.00,VISReader,2013-10-21 22:12:00,
2013-10-21 18:17:00,58.5,45.1,30.00,SSE,157,2.7,9.3,61,0.00,,,0.00,VISReader,2013-10-21 22:17:00,
2013-10-21 18:22:00,58.1,45.1,30.00,SE,135,2.7,8.5,62,0.00,,,0.00,VISReader,2013-10-21 22:22:00,
2013-10-21 18:27:00,57.7,45.2,30.00,South,180,3.2,8.5,63,0.00,,,0.00,VISReader,2013-10-21 22:27:00,
2013-10-21 18:32:00,57.4,45.3,30.00,SSE,157,1.1,6.8,64,0.00,,,0.00,VISReader,2013-10-21 22:32:00,
2013-10-21 18:38:00,57.0,45.4,30.00,SSE,157,0.0,6.8,65,0.00,,,0.00,VISReader,2013-10-21 22:38:00,
2013-10-21 18:43:00,56.5,45.7,30.00,South,180,4.2,6.8,67,0.00,,,0.00,VISReader,2013-10-21 22:43:00,
2013-10-21 18:48:00,56.3,45.5,30.00,South,180,0.0,6.8,67,0.00,,,0.00,VISReader,2013-10-21 22:48:00,
2013-10-21 18:53:00,55.9,45.5,30.00,SSE,157,1.7,4.3,68,0.00,,,0.00,VISReader,2013-10-21 22:53:00,
2013-10-21 18:59:00,55.6,45.6,30.00,SSE,157,1.7,4.3,69,0.00,,,0.00,VISReader,2013-10-21 22:59:00,
2013-10-21 19:04:00,55.2,45.6,30.01,ENE,67,1.1,4.3,70,0.00,,,0.00,VISReader,2013-10-21 23:04:00,
2013-10-21 19:09:00,54.9,45.3,30.01,NE,45,0.0,4.3,70,0.00,,,0.00,VISReader,2013-10-21 23:09:00,
2013-10-21 19:15:00,54.3,45.1,30.01,NE,45,0.0,4.3,71,0.00,,,0.00,VISReader,2013-10-21 23:15:00,
2013-10-21 19:20:00,54.0,45.2,30.01,NE,45,0.0,3.5,72,0.00,,,0.00,VISReader,2013-10-21 23:20:00,
2013-10-21 19:25:00,53.4,44.6,30.01,NE,45,0.0,0.0,72,0.00,,,0.00,VISReader,2013-10-21 23:25:00,
2013-10-21 19:30:00,52.9,44.5,30.01,NE,45,0.0,0.0,73,0.00,,,0.00,VISReader,2013-10-21 23:30:00,
2013-10-21 19:36:00,52.5,44.5,30.01,NE,45,0.0,2.7,74,0.00,,,0.00,VISReader,2013-10-21 23:36:00,
2013-10-21 19:41:00,52.2,44.2,30.01,NE,45,1.7,2.7,74,0.00,,,0.00,VISReader,2013-10-21 23:41:00,
2013-10-21 19:46:00,51.6,43.9,30.01,NE,45,0.0,2.7,75,0.00,,,0.00,VISReader,2013-10-21 23:46:00,
2013-10-21 19:51:00,51.1,43.8,30.01,NE,45,0.0,2.7,76,0.00,,,0.00,VISReader,2013-10-21 23:51:00,
2013-10-21 19:56:00,50.7,44.1,30.01,NE,45,1.7,2.7,78,0.00,,,0.00,VISReader,2013-10-21 23:56:00,
2013-10-21 20:01:00,50.4,44.1,30.00,NE,45,0.0,2.7,79,0.00,,,0.00,VISReader,2013-10-22 00:01:00,
2013-10-21 20:07:00,50.0,44.1,30.00,NE,45,0.0,1.8,80,0.00,,,0.00,VISReader,2013-10-22 00:07:00,
2013-10-21 20:12:00,49.8,44.2,30.00,NE,45,0.0,0.0,81,0.00,,,0.00,VISReader,2013-10-22 00:12:00,
2013-10-21 20:17:00,49.5,43.9,30.00,NE,45,0.0,0.0,81,0.00,,,0.00,VISReader,2013-10-22 00:17:00,
2013-10-21 20:22:00,49.3,44.0,30.00,NE,45,0.0,0.0,82,0.00,,,0.00,VISReader,2013-10-22 00:22:00,
2013-10-21 20:27:00,48.9,44.0,29.99,NE,45,0.0,0.0,83,0.00,,,0.00,VISReader,2013-10-22 00:27:00,
2013-10-21 20:32:00,48.6,43.7,29.99,NE,45,0.0,0.0,83,0.00,,,0.00,VISReader,2013-10-22 00:32:00,
2013-10-21 20:38:00,48.4,44.1,30.00,NE,45,0.0,0.0,85,0.00,,,0.00,VISReader,2013-10-22 00:38:00,
2013-10-21 20:43:00,48.2,43.9,30.00,NE,45,0.0,0.0,85,0.00,,,0.00,VISReader,2013-10-22 00:43:00,
2013-10-21 20:48:00,47.7,43.1,30.00,NE,45,0.0,0.0,84,0.00,,,0.00,VISReader,2013-10-22 00:48:00,
2013-10-21 20:53:00,47.3,42.7,30.00,NE,45,0.0,0.0,84,0.00,,,0.00,VISReader,2013-10-22 00:53:00,
2013-10-21 20:58:00,47.1,42.8,30.00,NE,45,0.0,0.0,85,0.00,,,0.00,VISReader,2013-10-22 00:58:00,
2013-10-21 21:04:00,47.1,43.4,30.00,NE,45,0.0,0.0,87,0.00,,,0.00,VISReader,2013-10-22 01:04:00,
2013-10-21 21:09:00,47.1,43.7,30.00,NE,45,0.0,0.0,88,0.00,,,0.00,VISReader,2013-10-22 01:09:00,
2013-10-21 21:14:00,47.1,43.7,29.99,NE,45,0.0,0.0,88,0.00,,,0.00,VISReader,2013-10-22 01:14:00,
2013-10-21 21:19:00,47.1,43.7,29.99,NE,45,1.1,1.8,88,0.00,,,0.00,VISReader,2013-10-22 01:19:00,
2013-10-21 21:25:00,46.8,43.4,29.99,NE,45,0.0,1.8,88,0.00,,,0.00,VISReader,2013-10-22 01:25:00,
2013-10-21 21:30:00,46.8,43.7,29.99,NE,45,1.1,1.8,89,0.00,,,0.00,VISReader,2013-10-22 01:30:00,
2013-10-21 21:35:00,47.1,44.0,29.99,NE,45,0.0,1.8,89,0.00,,,0.00,VISReader,2013-10-22 01:35:00,
2013-10-21 21:40:00,46.9,43.8,29.99,NE,45,0.0,2.7,89,0.00,,,0.00,VISReader,2013-10-22 01:40:00,
2013-10-21 21:46:00,46.9,43.8,29.99,NE,45,0.0,2.7,89,0.00,,,0.00,VISReader,2013-10-22 01:46:00,
2013-10-21 21:51:00,46.6,43.5,29.99,NE,45,0.0,2.7,89,0.00,,,0.00,VISReader,2013-10-22 01:51:00,
2013-10-21 21:55:00,46.6,43.8,29.99,NE,45,1.1,1.8,90,0.00,,,0.00,VISReader,2013-10-22 01:55:00,
2013-10-21 22:00:00,46.8,44.0,29.99,NE,45,0.0,3.5,90,0.00,,,0.00,VISReader,2013-10-22 02:00:00,
2013-10-21 22:05:00,46.2,43.4,29.99,NE,45,0.0,3.5,90,0.00,,,0.00,VISReader,2013-10-22 02:05:00,
2013-10-21 22:10:00,46.0,43.2,29.99,NE,45,0.0,2.7,90,0.00,,,0.00,VISReader,2013-10-22 02:10:00,
2013-10-21 22:15:00,45.9,43.1,29.98,NE,45,0.0,2.7,90,0.00,,,0.00,VISReader,2013-10-22 02:15:00,
2013-10-21 22:20:00,45.9,43.4,29.98,NE,45,0.0,0.0,91,0.00,,,0.00,VISReader,2013-10-22 02:20:00,
2013-10-21 22:26:00,46.0,43.5,29.99,NE,45,0.0,0.0,91,0.00,,,0.00,VISReader,2013-10-22 02:26:00,
2013-10-21 22:31:00,45.9,43.4,29.99,NE,45,0.0,0.0,91,0.00,,,0.00,VISReader,2013-10-22 02:31:00,
2013-10-21 22:36:00,45.7,43.2,29.98,NE,45,0.0,0.0,91,0.00,,,0.00,VISReader,2013-10-22 02:36:00,
2013-10-21 22:41:00,45.3,42.8,29.98,NE,45,0.0,0.0,91,0.00,,,0.00,VISReader,2013-10-22 02:41:00,
2013-10-21 22:46:00,45.1,42.6,29.98,NE,45,0.0,0.0,91,0.00,,,0.00,VISReader,2013-10-22 02:46:00,
2013-10-21 22:51:00,44.8,42.3,29.97,NE,45,0.0,0.0,91,0.00,,,0.00,VISReader,2013-10-22 02:51:00,
2013-10-21 22:57:00,45.3,43.1,29.97,NE,45,0.0,0.0,92,0.00,,,0.00,VISReader,2013-10-22 02:57:00,
2013-10-21 23:02:00,45.1,42.9,29.97,NE,45,0.0,0.0,92,0.00,,,0.00,VISReader,2013-10-22 03:02:00,
2013-10-21 23:07:00,45.3,43.4,29.97,NE,45,0.0,2.7,93,0.00,,,0.00,VISReader,2013-10-22 03:07:00,
2013-10-21 23:12:00,45.1,43.2,29.96,NE,45,0.0,2.7,93,0.00,,,0.00,VISReader,2013-10-22 03:12:00,
2013-10-21 23:17:00,45.5,43.6,29.96,NE,45,0.0,0.0,93,0.00,,,0.00,VISReader,2013-10-22 03:17:00,
2013-10-21 23:23:00,45.7,43.8,29.96,NE,45,0.0,0.0,93,0.00,,,0.00,VISReader,2013-10-22 03:23:00,
2013-10-21 23:28:00,46.2,44.3,29.96,NE,45,1.7,2.7,93,0.00,,,0.00,VISReader,2013-10-22 03:28:00,
2013-10-21 23:33:00,46.0,44.1,29.96,NE,45,0.0,2.7,93,0.00,,,0.00,VISReader,2013-10-22 03:33:00,
2013-10-21 23:38:00,45.9,44.0,29.95,NE,45,1.1,2.7,93,0.00,,,0.00,VISReader,2013-10-22 03:38:00,
2013-10-21 23:43:00,46.0,44.1,29.95,NE,45,0.0,2.7,93,0.00,,,0.00,VISReader,2013-10-22 03:43:00,
2013-10-21 23:49:00,46.0,44.1,29.94,NE,45,0.0,2.7,93,0.00,,,0.00,VISReader,2013-10-22 03:49:00,
2013-10-21 23:54:00,46.0,44.1,29.94,NE,45,0.0,2.7,93,0.00,,,0.00,VISReader,2013-10-22 03:54:00,
2013-10-21 23:59:00,46.4,44.5,29.94,NE,45,0.0,2.7,93,0.00,,,0.00,VISReader,2013-10-22 03:59:00,